sensor_id;sensor_type;location;lat;lon;timestamp;temperature;humidity
21666;DHT22;10994;45.486;9.190;2024-03-08T00:00:08;13.40;99.90
21666;DHT22;10994;45.486;9.190;2024-03-08T00:02:39;13.40;99.90
21666;DHT22;10994;45.486;9.190;2024-03-08T00:05:06;13.40;99.90
21666;DHT22;10994;45.486;9.190;2024-03-08T00:07:33;13.30;99.90
21666;DHT22;10994;45.486;9.190;2024-03-08T00:09:58;13.30;99.90
21666;DHT22;10994;45.486;9.190;2024-03-08T00:12:24;13.30;99.90
21666;DHT22;10994;45.486;9.190;2024-03-08T00:14:53;13.30;99.90
21666;DHT22;10994;45.486;9.190;2024-03-08T00:17:20;13.30;99.90
21666;DHT22;10994;45.486;9.190;2024-03-08T00:19:48;13.30;99.90
21666;DHT22;10994;45.486;9.190;2024-03-08T00:22:16;13.20;99.90
21666;DHT22;10994;45.486;9.190;2024-03-08T00:24:42;13.10;99.90
21666;DHT22;10994;45.486;9.190;2024-03-08T00:27:08;13.10;99.90
21666;DHT22;10994;45.486;9.190;2024-03-08T00:29:34;13.30;99.90
21666;DHT22;10994;45.486;9.190;2024-03-08T00:32:00;13.50;99.90
21666;DHT22;10994;45.486;9.190;2024-03-08T00:34:26;13.60;99.90
21666;DHT22;10994;45.486;9.190;2024-03-08T00:36:52;13.70;99.90
21666;DHT22;10994;45.486;9.190;2024-03-08T00:39:18;13.80;99.90
21666;DHT22;10994;45.486;9.190;2024-03-08T00:41:46;13.40;99.90
21666;DHT22;10994;45.486;9.190;2024-03-08T00:44:13;13.50;99.90
21666;DHT22;10994;45.486;9.190;2024-03-08T00:46:38;13.60;99.90
21666;DHT22;10994;45.486;9.190;2024-03-08T00:49:04;13.30;99.90
21666;DHT22;10994;45.486;9.190;2024-03-08T00:51:30;13.10;99.90
21666;DHT22;10994;45.486;9.190;2024-03-08T00:53:55;13.00;99.90
21666;DHT22;10994;45.486;9.190;2024-03-08T00:56:21;13.20;99.90
21666;DHT22;10994;45.486;9.190;2024-03-08T00:58:46;13.40;99.90
21666;DHT22;10994;45.486;9.190;2024-03-08T01:01:15;13.40;99.90
21666;DHT22;10994;45.486;9.190;2024-03-08T01:03:43;13.30;99.90
21666;DHT22;10994;45.486;9.190;2024-03-08T01:06:09;13.40;99.90
21666;DHT22;10994;45.486;9.190;2024-03-08T01:08:35;13.50;99.90
21666;DHT22;10994;45.486;9.190;2024-03-08T01:11:04;13.60;99.90
21666;DHT22;10994;45.486;9.190;2024-03-08T01:13:30;13.70;99.90
21666;DHT22;10994;45.486;9.190;2024-03-08T01:15:56;13.70;99.90
21666;DHT22;10994;45.486;9.190;2024-03-08T01:18:22;13.70;99.90
21666;DHT22;10994;45.486;9.190;2024-03-08T01:20:48;13.70;99.90
21666;DHT22;10994;45.486;9.190;2024-03-08T01:23:13;13.70;99.90
21666;DHT22;10994;45.486;9.190;2024-03-08T01:25:39;13.70;99.90
21666;DHT22;10994;45.486;9.190;2024-03-08T01:28:06;13.70;99.90
21666;DHT22;10994;45.486;9.190;2024-03-08T01:30:32;13.70;99.90
21666;DHT22;10994;45.486;9.190;2024-03-08T01:33:00;13.20;99.90
21666;DHT22;10994;45.486;9.190;2024-03-08T01:35:25;13.00;99.90
21666;DHT22;10994;45.486;9.190;2024-03-08T01:37:52;13.10;99.90
21666;DHT22;10994;45.486;9.190;2024-03-08T01:40:18;13.20;99.90
21666;DHT22;10994;45.486;9.190;2024-03-08T01:42:44;13.30;99.90
21666;DHT22;10994;45.486;9.190;2024-03-08T01:45:10;13.40;99.90
21666;DHT22;10994;45.486;9.190;2024-03-08T01:47:37;13.40;99.90
21666;DHT22;10994;45.486;9.190;2024-03-08T01:50:03;13.50;99.90
21666;DHT22;10994;45.486;9.190;2024-03-08T01:52:32;13.50;99.90
21666;DHT22;10994;45.486;9.190;2024-03-08T01:55:02;13.50;99.90
21666;DHT22;10994;45.486;9.190;2024-03-08T01:57:31;13.50;99.90
21666;DHT22;10994;45.486;9.190;2024-03-08T02:00:00;13.40;99.90
21666;DHT22;10994;45.486;9.190;2024-03-08T02:02:32;13.20;99.90
21666;DHT22;10994;45.486;9.190;2024-03-08T02:05:00;13.00;99.90
21666;DHT22;10994;45.486;9.190;2024-03-08T02:07:26;13.10;99.90
21666;DHT22;10994;45.486;9.190;2024-03-08T02:09:52;12.80;99.90
21666;DHT22;10994;45.486;9.190;2024-03-08T02:12:18;13.00;99.90
21666;DHT22;10994;45.486;9.190;2024-03-08T02:14:46;13.10;99.90
21666;DHT22;10994;45.486;9.190;2024-03-08T02:17:12;13.10;99.90
21666;DHT22;10994;45.486;9.190;2024-03-08T02:19:38;13.20;99.90
21666;DHT22;10994;45.486;9.190;2024-03-08T02:22:05;13.00;99.90
21666;DHT22;10994;45.486;9.190;2024-03-08T02:24:32;12.90;99.90
21666;DHT22;10994;45.486;9.190;2024-03-08T02:26:58;12.80;99.90
21666;DHT22;10994;45.486;9.190;2024-03-08T02:29:24;12.90;99.90
21666;DHT22;10994;45.486;9.190;2024-03-08T02:31:52;13.00;99.90
21666;DHT22;10994;45.486;9.190;2024-03-08T02:34:18;13.10;99.90
21666;DHT22;10994;45.486;9.190;2024-03-08T02:36:44;13.20;99.90
21666;DHT22;10994;45.486;9.190;2024-03-08T02:39:09;13.30;99.90
21666;DHT22;10994;45.486;9.190;2024-03-08T02:41:36;13.30;99.90
21666;DHT22;10994;45.486;9.190;2024-03-08T02:44:02;13.30;99.90
21666;DHT22;10994;45.486;9.190;2024-03-08T02:46:27;13.40;99.90
21666;DHT22;10994;45.486;9.190;2024-03-08T02:48:53;13.40;99.90
21666;DHT22;10994;45.486;9.190;2024-03-08T02:51:19;13.30;99.90
21666;DHT22;10994;45.486;9.190;2024-03-08T02:53:45;13.30;99.90
21666;DHT22;10994;45.486;9.190;2024-03-08T02:56:14;13.30;99.90
21666;DHT22;10994;45.486;9.190;2024-03-08T02:58:42;13.30;99.90
21666;DHT22;10994;45.486;9.190;2024-03-08T03:01:08;13.30;99.90
21666;DHT22;10994;45.486;9.190;2024-03-08T03:03:35;13.20;99.90
21666;DHT22;10994;45.486;9.190;2024-03-08T03:06:01;13.20;99.90
21666;DHT22;10994;45.486;9.190;2024-03-08T03:08:27;13.10;99.90
21666;DHT22;10994;45.486;9.190;2024-03-08T03:10:53;12.90;99.90
21666;DHT22;10994;45.486;9.190;2024-03-08T03:13:22;12.80;99.90
21666;DHT22;10994;45.486;9.190;2024-03-08T03:15:47;12.90;99.90
21666;DHT22;10994;45.486;9.190;2024-03-08T03:18:13;12.90;99.90
21666;DHT22;10994;45.486;9.190;2024-03-08T03:20:39;12.90;99.90
21666;DHT22;10994;45.486;9.190;2024-03-08T03:23:08;12.80;99.90
21666;DHT22;10994;45.486;9.190;2024-03-08T03:25:35;12.60;99.90
21666;DHT22;10994;45.486;9.190;2024-03-08T03:28:04;12.60;99.90
21666;DHT22;10994;45.486;9.190;2024-03-08T03:30:30;12.50;99.90
21666;DHT22;10994;45.486;9.190;2024-03-08T03:33:00;12.40;99.90
21666;DHT22;10994;45.486;9.190;2024-03-08T03:35:27;12.60;99.90
21666;DHT22;10994;45.486;9.190;2024-03-08T03:37:52;12.70;99.90
21666;DHT22;10994;45.486;9.190;2024-03-08T03:40:39;12.70;99.90
21666;DHT22;10994;45.486;9.190;2024-03-08T03:43:05;12.80;99.90
21666;DHT22;10994;45.486;9.190;2024-03-08T03:45:31;12.80;99.90
21666;DHT22;10994;45.486;9.190;2024-03-08T03:48:03;12.80;99.90
21666;DHT22;10994;45.486;9.190;2024-03-08T03:50:29;12.80;99.90
21666;DHT22;10994;45.486;9.190;2024-03-08T03:52:55;12.80;99.90
21666;DHT22;10994;45.486;9.190;2024-03-08T03:55:21;12.80;99.90
21666;DHT22;10994;45.486;9.190;2024-03-08T03:57:47;12.80;99.90
21666;DHT22;10994;45.486;9.190;2024-03-08T04:00:13;12.80;99.90
21666;DHT22;10994;45.486;9.190;2024-03-08T04:02:40;12.90;99.90
21666;DHT22;10994;45.486;9.190;2024-03-08T04:05:09;12.90;99.90
21666;DHT22;10994;45.486;9.190;2024-03-08T04:07:36;12.90;99.90
21666;DHT22;10994;45.486;9.190;2024-03-08T04:10:03;12.90;99.90
21666;DHT22;10994;45.486;9.190;2024-03-08T04:12:29;12.90;99.90
21666;DHT22;10994;45.486;9.190;2024-03-08T04:14:55;13.00;99.90
21666;DHT22;10994;45.486;9.190;2024-03-08T04:17:22;13.00;99.90
21666;DHT22;10994;45.486;9.190;2024-03-08T04:19:47;13.10;99.90
21666;DHT22;10994;45.486;9.190;2024-03-08T04:22:14;13.00;99.90
21666;DHT22;10994;45.486;9.190;2024-03-08T04:24:39;13.00;99.90
21666;DHT22;10994;45.486;9.190;2024-03-08T04:27:06;13.00;99.90
21666;DHT22;10994;45.486;9.190;2024-03-08T04:29:32;13.00;99.90
21666;DHT22;10994;45.486;9.190;2024-03-08T04:32:01;13.00;99.90
21666;DHT22;10994;45.486;9.190;2024-03-08T04:34:29;13.00;99.90
21666;DHT22;10994;45.486;9.190;2024-03-08T04:36:57;13.00;99.90
21666;DHT22;10994;45.486;9.190;2024-03-08T04:39:23;13.00;99.90
21666;DHT22;10994;45.486;9.190;2024-03-08T04:41:50;13.00;99.90
21666;DHT22;10994;45.486;9.190;2024-03-08T04:44:16;13.00;99.90
21666;DHT22;10994;45.486;9.190;2024-03-08T04:46:43;12.90;99.90
21666;DHT22;10994;45.486;9.190;2024-03-08T04:49:09;12.90;99.90
21666;DHT22;10994;45.486;9.190;2024-03-08T04:51:37;12.80;99.90
21666;DHT22;10994;45.486;9.190;2024-03-08T04:54:03;12.60;99.90
21666;DHT22;10994;45.486;9.190;2024-03-08T04:56:30;12.40;99.90
21666;DHT22;10994;45.486;9.190;2024-03-08T04:58:56;12.20;99.90
21666;DHT22;10994;45.486;9.190;2024-03-08T05:01:21;12.00;99.90
21666;DHT22;10994;45.486;9.190;2024-03-08T05:03:47;12.10;99.90
21666;DHT22;10994;45.486;9.190;2024-03-08T05:06:16;12.10;99.90
21666;DHT22;10994;45.486;9.190;2024-03-08T05:08:41;12.00;99.90
21666;DHT22;10994;45.486;9.190;2024-03-08T05:11:07;12.00;99.90
21666;DHT22;10994;45.486;9.190;2024-03-08T05:13:33;12.10;99.90
21666;DHT22;10994;45.486;9.190;2024-03-08T05:16:00;12.00;99.90
21666;DHT22;10994;45.486;9.190;2024-03-08T05:18:26;11.90;99.90
21666;DHT22;10994;45.486;9.190;2024-03-08T05:20:54;11.90;99.90
21666;DHT22;10994;45.486;9.190;2024-03-08T05:23:19;11.80;99.90
21666;DHT22;10994;45.486;9.190;2024-03-08T05:25:45;11.70;99.90
21666;DHT22;10994;45.486;9.190;2024-03-08T05:28:14;11.80;99.90
21666;DHT22;10994;45.486;9.190;2024-03-08T05:30:40;11.50;99.90
21666;DHT22;10994;45.486;9.190;2024-03-08T05:33:06;11.70;99.90
21666;DHT22;10994;45.486;9.190;2024-03-08T05:35:36;11.50;99.90
21666;DHT22;10994;45.486;9.190;2024-03-08T05:38:01;11.40;99.90
21666;DHT22;10994;45.486;9.190;2024-03-08T05:40:27;11.50;99.90
21666;DHT22;10994;45.486;9.190;2024-03-08T05:42:57;11.40;99.90
21666;DHT22;10994;45.486;9.190;2024-03-08T05:45:23;11.50;99.90
21666;DHT22;10994;45.486;9.190;2024-03-08T05:47:50;11.60;99.90
21666;DHT22;10994;45.486;9.190;2024-03-08T05:50:17;11.80;99.90
21666;DHT22;10994;45.486;9.190;2024-03-08T05:52:49;11.40;99.90
21666;DHT22;10994;45.486;9.190;2024-03-08T05:55:15;11.40;99.90
21666;DHT22;10994;45.486;9.190;2024-03-08T05:57:41;11.20;99.90
21666;DHT22;10994;45.486;9.190;2024-03-08T06:00:08;10.70;99.90
21666;DHT22;10994;45.486;9.190;2024-03-08T06:02:39;10.70;99.90
21666;DHT22;10994;45.486;9.190;2024-03-08T06:05:10;10.70;99.90
21666;DHT22;10994;45.486;9.190;2024-03-08T06:07:38;10.60;99.90
21666;DHT22;10994;45.486;9.190;2024-03-08T06:10:11;10.50;99.90
21666;DHT22;10994;45.486;9.190;2024-03-08T06:12:38;10.50;99.90
21666;DHT22;10994;45.486;9.190;2024-03-08T06:15:08;10.60;99.90
21666;DHT22;10994;45.486;9.190;2024-03-08T06:17:38;10.60;99.90
21666;DHT22;10994;45.486;9.190;2024-03-08T06:20:04;10.60;99.90
21666;DHT22;10994;45.486;9.190;2024-03-08T06:22:37;10.80;99.90
21666;DHT22;10994;45.486;9.190;2024-03-08T06:25:03;10.70;99.90
21666;DHT22;10994;45.486;9.190;2024-03-08T06:27:29;10.70;99.90
21666;DHT22;10994;45.486;9.190;2024-03-08T06:29:55;10.60;99.90
21666;DHT22;10994;45.486;9.190;2024-03-08T06:32:21;10.90;99.90
21666;DHT22;10994;45.486;9.190;2024-03-08T06:34:46;10.80;99.90
21666;DHT22;10994;45.486;9.190;2024-03-08T06:37:12;10.80;99.90
21666;DHT22;10994;45.486;9.190;2024-03-08T06:39:40;11.10;99.90
21666;DHT22;10994;45.486;9.190;2024-03-08T06:42:05;11.30;99.90
21666;DHT22;10994;45.486;9.190;2024-03-08T06:44:31;11.30;99.90
21666;DHT22;10994;45.486;9.190;2024-03-08T06:46:58;11.50;99.90
21666;DHT22;10994;45.486;9.190;2024-03-08T06:49:24;11.40;99.90
21666;DHT22;10994;45.486;9.190;2024-03-08T06:51:49;11.50;99.90
21666;DHT22;10994;45.486;9.190;2024-03-08T06:54:15;11.60;99.90
21666;DHT22;10994;45.486;9.190;2024-03-08T06:56:40;11.90;99.90
21666;DHT22;10994;45.486;9.190;2024-03-08T06:59:06;11.30;99.90
21666;DHT22;10994;45.486;9.190;2024-03-08T07:01:32;11.50;99.90
21666;DHT22;10994;45.486;9.190;2024-03-08T07:03:59;11.70;99.90
21666;DHT22;10994;45.486;9.190;2024-03-08T07:06:27;12.00;99.90
21666;DHT22;10994;45.486;9.190;2024-03-08T07:08:54;12.40;99.90
21666;DHT22;10994;45.486;9.190;2024-03-08T07:11:20;12.00;99.90
21666;DHT22;10994;45.486;9.190;2024-03-08T07:13:45;11.40;99.90
21666;DHT22;10994;45.486;9.190;2024-03-08T07:16:11;11.40;99.90
21666;DHT22;10994;45.486;9.190;2024-03-08T07:18:37;11.70;99.90
21666;DHT22;10994;45.486;9.190;2024-03-08T07:28:54;13.10;99.90
21666;DHT22;10994;45.486;9.190;2024-03-08T07:31:20;11.30;99.90
21666;DHT22;10994;45.486;9.190;2024-03-08T07:34:03;11.30;99.90
21666;DHT22;10994;45.486;9.190;2024-03-08T07:36:33;11.10;99.90
21666;DHT22;10994;45.486;9.190;2024-03-08T07:39:00;11.30;99.90
21666;DHT22;10994;45.486;9.190;2024-03-08T07:41:26;11.50;99.90
21666;DHT22;10994;45.486;9.190;2024-03-08T07:43:51;11.60;99.90
21666;DHT22;10994;45.486;9.190;2024-03-08T07:46:17;11.10;99.90
21666;DHT22;10994;45.486;9.190;2024-03-08T07:48:44;11.40;99.90
21666;DHT22;10994;45.486;9.190;2024-03-08T07:51:10;11.20;99.90
21666;DHT22;10994;45.486;9.190;2024-03-08T07:53:38;10.90;99.90
21666;DHT22;10994;45.486;9.190;2024-03-08T07:56:04;11.10;99.90
21666;DHT22;10994;45.486;9.190;2024-03-08T07:58:34;11.20;99.90
21666;DHT22;10994;45.486;9.190;2024-03-08T08:01:00;11.30;99.90
21666;DHT22;10994;45.486;9.190;2024-03-08T08:03:26;11.50;99.90
21666;DHT22;10994;45.486;9.190;2024-03-08T08:05:52;11.30;99.90
21666;DHT22;10994;45.486;9.190;2024-03-08T08:08:19;11.30;99.90
21666;DHT22;10994;45.486;9.190;2024-03-08T08:10:44;11.20;99.90
21666;DHT22;10994;45.486;9.190;2024-03-08T08:13:10;10.90;99.90
21666;DHT22;10994;45.486;9.190;2024-03-08T08:15:36;11.00;99.90
21666;DHT22;10994;45.486;9.190;2024-03-08T08:18:02;11.00;99.90
21666;DHT22;10994;45.486;9.190;2024-03-08T08:20:31;11.10;99.90
21666;DHT22;10994;45.486;9.190;2024-03-08T08:22:57;11.10;99.90
21666;DHT22;10994;45.486;9.190;2024-03-08T08:25:24;11.30;99.90
21666;DHT22;10994;45.486;9.190;2024-03-08T08:27:50;11.30;99.90
21666;DHT22;10994;45.486;9.190;2024-03-08T08:30:16;11.50;99.90
21666;DHT22;10994;45.486;9.190;2024-03-08T08:32:41;11.70;99.90
21666;DHT22;10994;45.486;9.190;2024-03-08T08:35:12;12.00;99.90
21666;DHT22;10994;45.486;9.190;2024-03-08T08:37:41;11.80;99.90
21666;DHT22;10994;45.486;9.190;2024-03-08T08:40:08;11.80;99.90
21666;DHT22;10994;45.486;9.190;2024-03-08T08:42:40;11.90;99.90
21666;DHT22;10994;45.486;9.190;2024-03-08T08:45:06;12.30;99.90
21666;DHT22;10994;45.486;9.190;2024-03-08T08:47:36;12.50;99.90
21666;DHT22;10994;45.486;9.190;2024-03-08T08:50:03;12.30;99.90
21666;DHT22;10994;45.486;9.190;2024-03-08T08:52:31;12.40;99.90
21666;DHT22;10994;45.486;9.190;2024-03-08T08:54:57;11.90;99.90
21666;DHT22;10994;45.486;9.190;2024-03-08T08:57:23;12.10;99.90
21666;DHT22;10994;45.486;9.190;2024-03-08T08:59:49;12.10;99.90
21666;DHT22;10994;45.486;9.190;2024-03-08T09:02:15;11.90;99.90
21666;DHT22;10994;45.486;9.190;2024-03-08T09:04:42;12.10;99.90
21666;DHT22;10994;45.486;9.190;2024-03-08T09:07:09;11.90;99.90
21666;DHT22;10994;45.486;9.190;2024-03-08T09:09:34;11.60;99.90
21666;DHT22;10994;45.486;9.190;2024-03-08T09:12:00;11.70;99.90
21666;DHT22;10994;45.486;9.190;2024-03-08T09:14:26;12.00;99.90
21666;DHT22;10994;45.486;9.190;2024-03-08T09:16:54;12.10;99.90
21666;DHT22;10994;45.486;9.190;2024-03-08T09:19:21;12.50;99.90
21666;DHT22;10994;45.486;9.190;2024-03-08T09:21:49;12.00;99.90
21666;DHT22;10994;45.486;9.190;2024-03-08T09:24:15;12.50;99.90
21666;DHT22;10994;45.486;9.190;2024-03-08T09:26:41;12.30;99.90
21666;DHT22;10994;45.486;9.190;2024-03-08T09:29:08;12.30;99.90
21666;DHT22;10994;45.486;9.190;2024-03-08T09:31:36;12.70;99.90
21666;DHT22;10994;45.486;9.190;2024-03-08T09:34:03;13.10;99.90
21666;DHT22;10994;45.486;9.190;2024-03-08T09:36:29;13.30;99.90
21666;DHT22;10994;45.486;9.190;2024-03-08T09:38:58;13.50;99.90
21666;DHT22;10994;45.486;9.190;2024-03-08T09:41:23;13.30;99.90
21666;DHT22;10994;45.486;9.190;2024-03-08T09:43:49;13.50;99.90
21666;DHT22;10994;45.486;9.190;2024-03-08T09:46:15;13.20;99.90
21666;DHT22;10994;45.486;9.190;2024-03-08T09:48:41;12.80;99.90
21666;DHT22;10994;45.486;9.190;2024-03-08T09:51:07;12.80;99.90
21666;DHT22;10994;45.486;9.190;2024-03-08T09:53:33;12.60;99.90
21666;DHT22;10994;45.486;9.190;2024-03-08T09:56:00;12.60;99.90
21666;DHT22;10994;45.486;9.190;2024-03-08T09:58:29;12.60;99.90
21666;DHT22;10994;45.486;9.190;2024-03-08T10:00:57;12.40;99.90
21666;DHT22;10994;45.486;9.190;2024-03-08T10:03:23;12.50;99.90
21666;DHT22;10994;45.486;9.190;2024-03-08T10:05:51;12.40;99.90
21666;DHT22;10994;45.486;9.190;2024-03-08T10:08:17;12.50;99.90
21666;DHT22;10994;45.486;9.190;2024-03-08T10:10:43;12.80;99.90
21666;DHT22;10994;45.486;9.190;2024-03-08T10:13:09;12.60;99.90
21666;DHT22;10994;45.486;9.190;2024-03-08T10:15:36;12.60;99.90
21666;DHT22;10994;45.486;9.190;2024-03-08T10:18:04;12.80;99.90
21666;DHT22;10994;45.486;9.190;2024-03-08T10:20:33;13.00;99.90
21666;DHT22;10994;45.486;9.190;2024-03-08T10:23:02;13.20;99.90
21666;DHT22;10994;45.486;9.190;2024-03-08T10:25:30;12.70;99.90
21666;DHT22;10994;45.486;9.190;2024-03-08T10:27:56;12.40;99.90
21666;DHT22;10994;45.486;9.190;2024-03-08T10:30:22;12.20;99.90
21666;DHT22;10994;45.486;9.190;2024-03-08T10:32:48;12.20;99.90
21666;DHT22;10994;45.486;9.190;2024-03-08T10:35:15;12.40;99.90
21666;DHT22;10994;45.486;9.190;2024-03-08T10:37:44;12.60;99.90
21666;DHT22;10994;45.486;9.190;2024-03-08T10:40:16;12.70;99.90
21666;DHT22;10994;45.486;9.190;2024-03-08T10:43:02;13.10;99.90
21666;DHT22;10994;45.486;9.190;2024-03-08T10:45:36;13.30;99.90
21666;DHT22;10994;45.486;9.190;2024-03-08T10:48:13;13.10;99.90
21666;DHT22;10994;45.486;9.190;2024-03-08T10:50:44;13.10;99.90
21666;DHT22;10994;45.486;9.190;2024-03-08T10:53:17;13.40;99.90
21666;DHT22;10994;45.486;9.190;2024-03-08T10:55:44;13.50;99.90
21666;DHT22;10994;45.486;9.190;2024-03-08T10:58:11;13.40;99.90
21666;DHT22;10994;45.486;9.190;2024-03-08T11:00:37;13.20;99.90
21666;DHT22;10994;45.486;9.190;2024-03-08T11:03:04;13.20;99.90
21666;DHT22;10994;45.486;9.190;2024-03-08T11:08:16;12.80;99.90
21666;DHT22;10994;45.486;9.190;2024-03-08T11:10:53;13.00;99.90
21666;DHT22;10994;45.486;9.190;2024-03-08T11:13:40;13.00;99.90
21666;DHT22;10994;45.486;9.190;2024-03-08T11:16:09;12.70;99.90
21666;DHT22;10994;45.486;9.190;2024-03-08T11:18:36;12.50;99.90
21666;DHT22;10994;45.486;9.190;2024-03-08T11:21:08;12.20;99.90
21666;DHT22;10994;45.486;9.190;2024-03-08T11:23:38;12.10;99.90
21666;DHT22;10994;45.486;9.190;2024-03-08T11:26:25;12.10;99.90
21666;DHT22;10994;45.486;9.190;2024-03-08T11:28:51;12.20;99.90
21666;DHT22;10994;45.486;9.190;2024-03-08T11:31:22;12.20;99.90
21666;DHT22;10994;45.486;9.190;2024-03-08T11:33:48;12.10;99.90
21666;DHT22;10994;45.486;9.190;2024-03-08T11:36:22;12.10;99.90
21666;DHT22;10994;45.486;9.190;2024-03-08T11:38:53;12.20;99.90
21666;DHT22;10994;45.486;9.190;2024-03-08T11:41:22;12.50;99.90
21666;DHT22;10994;45.486;9.190;2024-03-08T11:43:49;12.80;99.90
21666;DHT22;10994;45.486;9.190;2024-03-08T11:46:17;13.00;99.90
21666;DHT22;10994;45.486;9.190;2024-03-08T11:48:44;12.90;99.90
21666;DHT22;10994;45.486;9.190;2024-03-08T11:51:14;13.00;99.90
21666;DHT22;10994;45.486;9.190;2024-03-08T11:53:41;12.60;99.90
21666;DHT22;10994;45.486;9.190;2024-03-08T11:56:11;12.40;99.90
21666;DHT22;10994;45.486;9.190;2024-03-08T11:58:41;12.40;99.90
21666;DHT22;10994;45.486;9.190;2024-03-08T12:01:10;12.80;99.90
21666;DHT22;10994;45.486;9.190;2024-03-08T12:03:43;13.20;99.90
21666;DHT22;10994;45.486;9.190;2024-03-08T12:06:09;13.20;99.90
21666;DHT22;10994;45.486;9.190;2024-03-08T12:08:35;13.00;99.90
21666;DHT22;10994;45.486;9.190;2024-03-08T12:11:01;12.90;99.90
21666;DHT22;10994;45.486;9.190;2024-03-08T12:13:33;13.00;99.90
21666;DHT22;10994;45.486;9.190;2024-03-08T12:16:03;13.20;99.90
21666;DHT22;10994;45.486;9.190;2024-03-08T12:18:36;13.30;99.90
21666;DHT22;10994;45.486;9.190;2024-03-08T12:21:11;13.50;99.90
21666;DHT22;10994;45.486;9.190;2024-03-08T12:23:39;13.70;99.90
21666;DHT22;10994;45.486;9.190;2024-03-08T12:28:39;13.50;99.90
21666;DHT22;10994;45.486;9.190;2024-03-08T12:31:07;13.10;99.90
21666;DHT22;10994;45.486;9.190;2024-03-08T12:33:50;13.00;99.90
21666;DHT22;10994;45.486;9.190;2024-03-08T12:36:17;12.60;99.90
21666;DHT22;10994;45.486;9.190;2024-03-08T18:49:25;13.10;99.90
21666;DHT22;10994;45.486;9.190;2024-03-08T18:51:51;11.00;99.90
21666;DHT22;10994;45.486;9.190;2024-03-08T18:54:19;11.10;99.90
21666;DHT22;10994;45.486;9.190;2024-03-08T18:56:45;10.90;99.90
21666;DHT22;10994;45.486;9.190;2024-03-08T18:59:12;10.90;99.90
21666;DHT22;10994;45.486;9.190;2024-03-08T19:01:38;10.90;99.90
21666;DHT22;10994;45.486;9.190;2024-03-08T19:04:06;10.70;99.90
21666;DHT22;10994;45.486;9.190;2024-03-08T19:06:31;10.50;99.90
21666;DHT22;10994;45.486;9.190;2024-03-08T19:08:59;10.50;99.90
21666;DHT22;10994;45.486;9.190;2024-03-08T19:11:25;10.40;99.90
21666;DHT22;10994;45.486;9.190;2024-03-08T19:13:52;10.40;99.90
21666;DHT22;10994;45.486;9.190;2024-03-08T19:16:17;10.60;99.90
